sensor_id;sensor_type;location;lat;lon;timestamp;P1;durP1;ratioP1;P2;durP2;ratioP2
67554;SDS011;54385;53.516;49.456;2023-12-20T00:01:51;1.02;;;0.70;;
67554;SDS011;54385;53.516;49.456;2023-12-20T00:04:18;1.45;;;0.85;;
67554;SDS011;54385;53.516;49.456;2023-12-20T00:06:44;1.02;;;0.70;;
67554;SDS011;54385;53.516;49.456;2023-12-20T00:09:11;1.10;;;0.85;;
67554;SDS011;54385;53.516;49.456;2023-12-20T00:11:37;0.80;;;0.80;;
67554;SDS011;54385;53.516;49.456;2023-12-20T00:14:04;1.52;;;0.80;;
67554;SDS011;54385;53.516;49.456;2023-12-20T00:16:30;0.85;;;0.60;;
67554;SDS011;54385;53.516;49.456;2023-12-20T00:18:57;1.17;;;0.65;;
67554;SDS011;54385;53.516;49.456;2023-12-20T00:21:23;0.68;;;0.60;;
67554;SDS011;54385;53.516;49.456;2023-12-20T00:23:50;0.73;;;0.60;;
67554;SDS011;54385;53.516;49.456;2023-12-20T00:26:16;1.00;;;0.80;;
67554;SDS011;54385;53.516;49.456;2023-12-20T00:28:43;1.10;;;0.80;;
67554;SDS011;54385;53.516;49.456;2023-12-20T00:31:09;1.13;;;0.70;;
67554;SDS011;54385;53.516;49.456;2023-12-20T00:33:36;0.90;;;0.60;;
67554;SDS011;54385;53.516;49.456;2023-12-20T00:36:02;1.17;;;0.68;;
67554;SDS011;54385;53.516;49.456;2023-12-20T00:38:29;0.98;;;0.77;;
67554;SDS011;54385;53.516;49.456;2023-12-20T00:40:55;0.70;;;0.60;;
67554;SDS011;54385;53.516;49.456;2023-12-20T00:43:22;1.33;;;0.80;;
67554;SDS011;54385;53.516;49.456;2023-12-20T00:45:49;1.45;;;0.70;;
67554;SDS011;54385;53.516;49.456;2023-12-20T00:48:15;0.88;;;0.60;;
67554;SDS011;54385;53.516;49.456;2023-12-20T00:50:41;0.68;;;0.63;;
67554;SDS011;54385;53.516;49.456;2023-12-20T00:53:08;0.80;;;0.73;;
67554;SDS011;54385;53.516;49.456;2023-12-20T00:55:35;2.03;;;0.70;;
67554;SDS011;54385;53.516;49.456;2023-12-20T00:58:01;0.90;;;0.57;;
67554;SDS011;54385;53.516;49.456;2023-12-20T01:00:27;0.70;;;0.57;;
67554;SDS011;54385;53.516;49.456;2023-12-20T01:02:54;0.90;;;0.73;;
67554;SDS011;54385;53.516;49.456;2023-12-20T01:05:20;1.27;;;0.70;;
67554;SDS011;54385;53.516;49.456;2023-12-20T01:07:50;0.82;;;0.70;;
67554;SDS011;54385;53.516;49.456;2023-12-20T01:10:17;1.17;;;0.70;;
67554;SDS011;54385;53.516;49.456;2023-12-20T01:12:43;0.52;;;0.52;;
67554;SDS011;54385;53.516;49.456;2023-12-20T01:15:10;0.50;;;0.43;;
67554;SDS011;54385;53.516;49.456;2023-12-20T01:17:37;0.75;;;0.60;;
67554;SDS011;54385;53.516;49.456;2023-12-20T01:20:04;0.57;;;0.47;;
67554;SDS011;54385;53.516;49.456;2023-12-20T01:22:31;1.33;;;0.60;;
67554;SDS011;54385;53.516;49.456;2023-12-20T01:24:58;0.60;;;0.50;;
67554;SDS011;54385;53.516;49.456;2023-12-20T01:27:24;0.40;;;0.40;;
67554;SDS011;54385;53.516;49.456;2023-12-20T01:29:50;0.32;;;0.32;;
67554;SDS011;54385;53.516;49.456;2023-12-20T01:32:17;0.47;;;0.38;;
67554;SDS011;54385;53.516;49.456;2023-12-20T01:34:44;0.90;;;0.70;;
67554;SDS011;54385;53.516;49.456;2023-12-20T01:37:10;0.45;;;0.45;;
67554;SDS011;54385;53.516;49.456;2023-12-20T01:39:37;0.50;;;0.50;;
67554;SDS011;54385;53.516;49.456;2023-12-20T01:42:03;0.70;;;0.50;;
67554;SDS011;54385;53.516;49.456;2023-12-20T01:44:30;0.70;;;0.60;;
67554;SDS011;54385;53.516;49.456;2023-12-20T01:46:56;0.65;;;0.50;;
67554;SDS011;54385;53.516;49.456;2023-12-20T01:49:23;0.70;;;0.50;;
67554;SDS011;54385;53.516;49.456;2023-12-20T01:51:50;0.55;;;0.50;;
67554;SDS011;54385;53.516;49.456;2023-12-20T01:54:17;0.70;;;0.50;;
67554;SDS011;54385;53.516;49.456;2023-12-20T01:56:45;0.98;;;0.52;;
67554;SDS011;54385;53.516;49.456;2023-12-20T01:59:11;1.00;;;0.70;;
67554;SDS011;54385;53.516;49.456;2023-12-20T02:01:38;0.70;;;0.50;;
67554;SDS011;54385;53.516;49.456;2023-12-20T02:04:05;1.45;;;0.70;;
67554;SDS011;54385;53.516;49.456;2023-12-20T02:06:32;1.00;;;0.50;;
67554;SDS011;54385;53.516;49.456;2023-12-20T02:08:59;0.60;;;0.45;;
67554;SDS011;54385;53.516;49.456;2023-12-20T02:11:26;0.65;;;0.40;;
67554;SDS011;54385;53.516;49.456;2023-12-20T02:13:54;0.63;;;0.43;;
67554;SDS011;54385;53.516;49.456;2023-12-20T02:16:21;0.45;;;0.40;;
67554;SDS011;54385;53.516;49.456;2023-12-20T02:18:48;0.70;;;0.50;;
67554;SDS011;54385;53.516;49.456;2023-12-20T02:21:14;0.70;;;0.52;;
67554;SDS011;54385;53.516;49.456;2023-12-20T02:23:41;0.70;;;0.50;;
67554;SDS011;54385;53.516;49.456;2023-12-20T02:26:07;0.55;;;0.45;;
67554;SDS011;54385;53.516;49.456;2023-12-20T02:28:34;0.30;;;0.30;;
67554;SDS011;54385;53.516;49.456;2023-12-20T02:31:01;0.52;;;0.43;;
67554;SDS011;54385;53.516;49.456;2023-12-20T02:33:27;0.70;;;0.50;;
67554;SDS011;54385;53.516;49.456;2023-12-20T02:35:57;0.50;;;0.50;;
67554;SDS011;54385;53.516;49.456;2023-12-20T02:38:24;0.52;;;0.50;;
67554;SDS011;54385;53.516;49.456;2023-12-20T02:40:50;0.40;;;0.40;;
67554;SDS011;54385;53.516;49.456;2023-12-20T02:43:16;0.95;;;0.50;;
67554;SDS011;54385;53.516;49.456;2023-12-20T02:45:43;0.70;;;0.50;;
67554;SDS011;54385;53.516;49.456;2023-12-20T02:48:09;0.73;;;0.50;;
67554;SDS011;54385;53.516;49.456;2023-12-20T02:50:36;0.57;;;0.40;;
67554;SDS011;54385;53.516;49.456;2023-12-20T02:53:02;0.50;;;0.40;;
67554;SDS011;54385;53.516;49.456;2023-12-20T02:55:29;1.63;;;0.43;;
67554;SDS011;54385;53.516;49.456;2023-12-20T02:57:57;0.88;;;0.60;;
67554;SDS011;54385;53.516;49.456;2023-12-20T03:00:24;0.50;;;0.50;;
67554;SDS011;54385;53.516;49.456;2023-12-20T03:02:51;0.50;;;0.40;;
67554;SDS011;54385;53.516;49.456;2023-12-20T03:05:17;0.80;;;0.60;;
67554;SDS011;54385;53.516;49.456;2023-12-20T03:07:44;0.55;;;0.50;;
67554;SDS011;54385;53.516;49.456;2023-12-20T03:10:11;0.80;;;0.60;;
67554;SDS011;54385;53.516;49.456;2023-12-20T03:12:38;0.45;;;0.40;;
67554;SDS011;54385;53.516;49.456;2023-12-20T03:15:13;0.32;;;0.32;;
67554;SDS011;54385;53.516;49.456;2023-12-20T03:17:42;1.00;;;0.70;;
67554;SDS011;54385;53.516;49.456;2023-12-20T03:20:09;0.73;;;0.45;;
67554;SDS011;54385;53.516;49.456;2023-12-20T03:22:36;1.27;;;0.50;;
67554;SDS011;54385;53.516;49.456;2023-12-20T03:25:02;1.92;;;0.60;;
67554;SDS011;54385;53.516;49.456;2023-12-20T03:27:29;0.70;;;0.47;;
67554;SDS011;54385;53.516;49.456;2023-12-20T03:29:55;1.40;;;0.80;;
67554;SDS011;54385;53.516;49.456;2023-12-20T03:32:28;0.75;;;0.55;;
67554;SDS011;54385;53.516;49.456;2023-12-20T03:35:01;4.28;;;0.77;;
67554;SDS011;54385;53.516;49.456;2023-12-20T03:37:27;1.08;;;0.60;;
67554;SDS011;54385;53.516;49.456;2023-12-20T03:39:54;1.10;;;0.70;;
67554;SDS011;54385;53.516;49.456;2023-12-20T03:42:28;0.93;;;0.73;;
67554;SDS011;54385;53.516;49.456;2023-12-20T03:44:55;1.30;;;0.70;;
67554;SDS011;54385;53.516;49.456;2023-12-20T03:47:21;1.63;;;0.60;;
67554;SDS011;54385;53.516;49.456;2023-12-20T03:49:48;1.10;;;0.73;;
67554;SDS011;54385;53.516;49.456;2023-12-20T03:52:14;1.08;;;0.80;;
67554;SDS011;54385;53.516;49.456;2023-12-20T03:54:41;0.80;;;0.60;;
67554;SDS011;54385;53.516;49.456;2023-12-20T03:57:11;2.17;;;0.82;;
67554;SDS011;54385;53.516;49.456;2023-12-20T03:59:40;1.30;;;0.70;;
67554;SDS011;54385;53.516;49.456;2023-12-20T04:02:07;1.30;;;0.70;;
67554;SDS011;54385;53.516;49.456;2023-12-20T04:04:34;1.27;;;0.70;;
67554;SDS011;54385;53.516;49.456;2023-12-20T04:07:04;1.00;;;0.60;;
67554;SDS011;54385;53.516;49.456;2023-12-20T04:09:30;1.33;;;0.70;;
67554;SDS011;54385;53.516;49.456;2023-12-20T04:11:57;1.10;;;0.75;;
67554;SDS011;54385;53.516;49.456;2023-12-20T04:14:23;1.55;;;0.80;;
67554;SDS011;54385;53.516;49.456;2023-12-20T04:16:53;2.67;;;0.80;;
67554;SDS011;54385;53.516;49.456;2023-12-20T04:19:23;1.83;;;0.77;;
67554;SDS011;54385;53.516;49.456;2023-12-20T04:21:49;2.78;;;0.63;;
67554;SDS011;54385;53.516;49.456;2023-12-20T04:24:19;1.92;;;0.70;;
67554;SDS011;54385;53.516;49.456;2023-12-20T04:26:46;3.10;;;0.82;;
67554;SDS011;54385;53.516;49.456;2023-12-20T04:29:12;1.10;;;0.70;;
67554;SDS011;54385;53.516;49.456;2023-12-20T04:31:39;1.48;;;0.50;;
67554;SDS011;54385;53.516;49.456;2023-12-20T04:34:05;1.75;;;0.63;;
67554;SDS011;54385;53.516;49.456;2023-12-20T04:36:32;2.65;;;0.70;;
67554;SDS011;54385;53.516;49.456;2023-12-20T04:38:58;1.40;;;0.47;;
67554;SDS011;54385;53.516;49.456;2023-12-20T04:41:25;1.15;;;0.70;;
67554;SDS011;54385;53.516;49.456;2023-12-20T04:43:53;3.85;;;0.65;;
67554;SDS011;54385;53.516;49.456;2023-12-20T04:46:19;1.40;;;0.63;;
67554;SDS011;54385;53.516;49.456;2023-12-20T04:48:46;1.48;;;0.73;;
67554;SDS011;54385;53.516;49.456;2023-12-20T04:51:12;1.83;;;0.70;;
67554;SDS011;54385;53.516;49.456;2023-12-20T04:53:39;1.27;;;0.60;;
67554;SDS011;54385;53.516;49.456;2023-12-20T04:56:06;2.42;;;0.52;;
67554;SDS011;54385;53.516;49.456;2023-12-20T04:58:32;1.88;;;1.08;;
67554;SDS011;54385;53.516;49.456;2023-12-20T05:00:59;2.38;;;0.63;;
67554;SDS011;54385;53.516;49.456;2023-12-20T05:03:27;1.95;;;0.85;;
67554;SDS011;54385;53.516;49.456;2023-12-20T05:05:53;1.27;;;0.65;;
67554;SDS011;54385;53.516;49.456;2023-12-20T05:08:21;2.40;;;0.80;;
67554;SDS011;54385;53.516;49.456;2023-12-20T05:10:47;2.08;;;0.80;;
67554;SDS011;54385;53.516;49.456;2023-12-20T05:13:14;4.50;;;0.85;;
67554;SDS011;54385;53.516;49.456;2023-12-20T05:15:41;1.35;;;0.88;;
67554;SDS011;54385;53.516;49.456;2023-12-20T05:18:08;2.45;;;0.70;;
67554;SDS011;54385;53.516;49.456;2023-12-20T05:20:34;1.52;;;0.80;;
67554;SDS011;54385;53.516;49.456;2023-12-20T05:23:01;0.93;;;0.70;;
67554;SDS011;54385;53.516;49.456;2023-12-20T05:25:27;3.47;;;0.77;;
67554;SDS011;54385;53.516;49.456;2023-12-20T05:27:54;1.92;;;0.70;;
67554;SDS011;54385;53.516;49.456;2023-12-20T05:30:21;1.35;;;0.70;;
67554;SDS011;54385;53.516;49.456;2023-12-20T05:32:51;1.88;;;0.65;;
67554;SDS011;54385;53.516;49.456;2023-12-20T05:35:17;1.25;;;0.75;;
67554;SDS011;54385;53.516;49.456;2023-12-20T05:37:45;1.42;;;0.50;;
67554;SDS011;54385;53.516;49.456;2023-12-20T05:40:11;1.50;;;0.40;;
67554;SDS011;54385;53.516;49.456;2023-12-20T05:42:38;1.25;;;0.77;;
67554;SDS011;54385;53.516;49.456;2023-12-20T05:45:04;2.03;;;0.73;;
67554;SDS011;54385;53.516;49.456;2023-12-20T05:47:34;1.20;;;0.80;;
67554;SDS011;54385;53.516;49.456;2023-12-20T05:50:04;1.70;;;0.80;;
67554;SDS011;54385;53.516;49.456;2023-12-20T05:52:34;0.98;;;0.75;;
67554;SDS011;54385;53.516;49.456;2023-12-20T05:55:04;1.52;;;0.70;;
67554;SDS011;54385;53.516;49.456;2023-12-20T05:57:31;1.40;;;0.75;;
67554;SDS011;54385;53.516;49.456;2023-12-20T05:59:58;2.35;;;0.85;;
67554;SDS011;54385;53.516;49.456;2023-12-20T06:02:33;1.20;;;0.70;;
67554;SDS011;54385;53.516;49.456;2023-12-20T06:05:08;1.27;;;0.75;;
67554;SDS011;54385;53.516;49.456;2023-12-20T06:07:47;1.50;;;0.73;;
67554;SDS011;54385;53.516;49.456;2023-12-20T06:10:40;0.68;;;0.60;;
67554;SDS011;54385;53.516;49.456;2023-12-20T06:13:10;1.33;;;0.75;;
67554;SDS011;54385;53.516;49.456;2023-12-20T06:15:39;1.33;;;0.52;;
67554;SDS011;54385;53.516;49.456;2023-12-20T06:18:10;2.00;;;0.70;;
67554;SDS011;54385;53.516;49.456;2023-12-20T06:20:39;2.40;;;0.80;;
67554;SDS011;54385;53.516;49.456;2023-12-20T06:23:12;1.00;;;0.80;;
67554;SDS011;54385;53.516;49.456;2023-12-20T06:25:39;1.10;;;0.57;;
67554;SDS011;54385;53.516;49.456;2023-12-20T06:28:13;1.05;;;0.68;;
67554;SDS011;54385;53.516;49.456;2023-12-20T06:30:42;1.88;;;0.82;;
67554;SDS011;54385;53.516;49.456;2023-12-20T06:33:09;4.80;;;0.93;;
67554;SDS011;54385;53.516;49.456;2023-12-20T06:35:37;1.45;;;0.88;;
67554;SDS011;54385;53.516;49.456;2023-12-20T06:38:03;1.92;;;1.17;;
67554;SDS011;54385;53.516;49.456;2023-12-20T06:40:30;1.52;;;0.80;;
67554;SDS011;54385;53.516;49.456;2023-12-20T06:42:57;3.15;;;0.90;;
67554;SDS011;54385;53.516;49.456;2023-12-20T06:45:25;1.73;;;0.82;;
67554;SDS011;54385;53.516;49.456;2023-12-20T06:47:57;1.30;;;0.85;;
67554;SDS011;54385;53.516;49.456;2023-12-20T06:50:29;0.90;;;0.73;;
67554;SDS011;54385;53.516;49.456;2023-12-20T06:53:01;1.10;;;0.70;;
67554;SDS011;54385;53.516;49.456;2023-12-20T06:55:33;3.00;;;1.00;;
67554;SDS011;54385;53.516;49.456;2023-12-20T06:58:02;1.88;;;0.90;;
67554;SDS011;54385;53.516;49.456;2023-12-20T07:00:29;1.15;;;0.80;;
67554;SDS011;54385;53.516;49.456;2023-12-20T07:03:01;1.23;;;0.93;;
67554;SDS011;54385;53.516;49.456;2023-12-20T07:05:29;1.27;;;0.80;;
67554;SDS011;54385;53.516;49.456;2023-12-20T07:07:57;1.73;;;1.00;;
67554;SDS011;54385;53.516;49.456;2023-12-20T07:10:33;2.72;;;1.40;;
67554;SDS011;54385;53.516;49.456;2023-12-20T07:13:00;2.42;;;1.10;;
67554;SDS011;54385;53.516;49.456;2023-12-20T07:15:26;1.45;;;0.90;;
67554;SDS011;54385;53.516;49.456;2023-12-20T07:17:57;2.13;;;1.10;;
67554;SDS011;54385;53.516;49.456;2023-12-20T07:20:26;1.58;;;0.98;;
67554;SDS011;54385;53.516;49.456;2023-12-20T07:23:01;1.40;;;1.10;;
67554;SDS011;54385;53.516;49.456;2023-12-20T07:25:28;2.50;;;1.13;;
67554;SDS011;54385;53.516;49.456;2023-12-20T07:27:54;2.00;;;1.15;;
67554;SDS011;54385;53.516;49.456;2023-12-20T07:30:21;1.85;;;1.00;;
67554;SDS011;54385;53.516;49.456;2023-12-20T07:32:47;1.40;;;0.88;;
67554;SDS011;54385;53.516;49.456;2023-12-20T07:35:24;1.80;;;1.00;;
67554;SDS011;54385;53.516;49.456;2023-12-20T07:37:53;4.43;;;1.02;;
67554;SDS011;54385;53.516;49.456;2023-12-20T07:40:20;3.13;;;1.10;;
67554;SDS011;54385;53.516;49.456;2023-12-20T07:42:46;1.25;;;0.88;;
67554;SDS011;54385;53.516;49.456;2023-12-20T07:45:13;2.05;;;1.27;;
67554;SDS011;54385;53.516;49.456;2023-12-20T07:47:40;1.65;;;1.10;;
67554;SDS011;54385;53.516;49.456;2023-12-20T07:50:10;1.25;;;0.85;;
67554;SDS011;54385;53.516;49.456;2023-12-20T07:52:36;1.92;;;1.20;;
67554;SDS011;54385;53.516;49.456;2023-12-20T07:55:03;2.78;;;1.02;;
67554;SDS011;54385;53.516;49.456;2023-12-20T08:02:41;2.50;;;0.90;;
67554;SDS011;54385;53.516;49.456;2023-12-20T08:05:30;1.45;;;1.00;;
67554;SDS011;54385;53.516;49.456;2023-12-20T08:08:00;2.63;;;1.30;;
67554;SDS011;54385;53.516;49.456;2023-12-20T08:10:26;1.80;;;1.00;;
67554;SDS011;54385;53.516;49.456;2023-12-20T08:13:25;1.63;;;1.10;;
67554;SDS011;54385;53.516;49.456;2023-12-20T08:16:04;2.17;;;1.00;;
67554;SDS011;54385;53.516;49.456;2023-12-20T08:18:45;2.60;;;1.17;;
67554;SDS011;54385;53.516;49.456;2023-12-20T08:21:40;1.15;;;0.93;;
67554;SDS011;54385;53.516;49.456;2023-12-20T08:24:11;3.60;;;1.20;;
67554;SDS011;54385;53.516;49.456;2023-12-20T08:26:52;2.67;;;1.15;;
67554;SDS011;54385;53.516;49.456;2023-12-20T08:29:22;2.92;;;1.00;;
67554;SDS011;54385;53.516;49.456;2023-12-20T08:31:52;1.10;;;0.80;;
67554;SDS011;54385;53.516;49.456;2023-12-20T08:34:23;2.97;;;1.00;;
67554;SDS011;54385;53.516;49.456;2023-12-20T08:36:50;2.63;;;1.15;;
67554;SDS011;54385;53.516;49.456;2023-12-20T08:39:17;1.08;;;0.90;;
67554;SDS011;54385;53.516;49.456;2023-12-20T08:41:44;3.80;;;1.10;;
67554;SDS011;54385;53.516;49.456;2023-12-20T08:44:19;2.17;;;0.90;;
67554;SDS011;54385;53.516;49.456;2023-12-20T08:47:22;1.20;;;1.00;;
67554;SDS011;54385;53.516;49.456;2023-12-20T08:50:31;2.33;;;1.02;;
67554;SDS011;54385;53.516;49.456;2023-12-20T08:56:22;1.52;;;0.80;;
67554;SDS011;54385;53.516;49.456;2023-12-20T08:58:53;2.15;;;0.90;;
67554;SDS011;54385;53.516;49.456;2023-12-20T09:03:58;1.67;;;1.10;;
67554;SDS011;54385;53.516;49.456;2023-12-20T09:10:08;2.15;;;0.93;;
67554;SDS011;54385;53.516;49.456;2023-12-20T09:13:01;1.27;;;0.82;;
67554;SDS011;54385;53.516;49.456;2023-12-20T09:15:55;3.13;;;1.17;;
67554;SDS011;54385;53.516;49.456;2023-12-20T09:19:11;2.00;;;0.98;;
67554;SDS011;54385;53.516;49.456;2023-12-20T09:25:12;1.42;;;0.82;;
67554;SDS011;54385;53.516;49.456;2023-12-20T09:27:46;1.25;;;0.90;;
67554;SDS011;54385;53.516;49.456;2023-12-20T09:30:31;0.93;;;0.82;;
67554;SDS011;54385;53.516;49.456;2023-12-20T09:33:35;1.65;;;0.82;;
67554;SDS011;54385;53.516;49.456;2023-12-20T09:39:48;3.90;;;1.00;;
67554;SDS011;54385;53.516;49.456;2023-12-20T09:49:37;2.40;;;1.00;;
67554;SDS011;54385;53.516;49.456;2023-12-20T09:54:55;1.67;;;1.00;;
67554;SDS011;54385;53.516;49.456;2023-12-20T09:57:39;2.13;;;1.13;;
67554;SDS011;54385;53.516;49.456;2023-12-20T10:00:23;2.30;;;1.40;;
67554;SDS011;54385;53.516;49.456;2023-12-20T10:03:22;2.80;;;1.17;;
67554;SDS011;54385;53.516;49.456;2023-12-20T10:11:54;1.65;;;1.00;;
67554;SDS011;54385;53.516;49.456;2023-12-20T10:14:43;10.80;;;1.10;;
67554;SDS011;54385;53.516;49.456;2023-12-20T10:17:24;2.00;;;1.10;;
67554;SDS011;54385;53.516;49.456;2023-12-20T10:20:03;2.13;;;1.10;;
67554;SDS011;54385;53.516;49.456;2023-12-20T10:22:42;3.33;;;1.17;;
67554;SDS011;54385;53.516;49.456;2023-12-20T10:25:20;1.80;;;1.20;;
67554;SDS011;54385;53.516;49.456;2023-12-20T10:28:18;1.20;;;0.90;;
67554;SDS011;54385;53.516;49.456;2023-12-20T10:30:59;3.00;;;1.10;;
67554;SDS011;54385;53.516;49.456;2023-12-20T10:48:17;2.00;;;1.30;;
67554;SDS011;54385;53.516;49.456;2023-12-20T10:50:58;3.85;;;1.40;;
67554;SDS011;54385;53.516;49.456;2023-12-20T10:53:48;2.67;;;1.23;;
67554;SDS011;54385;53.516;49.456;2023-12-20T10:56:27;2.25;;;1.00;;
67554;SDS011;54385;53.516;49.456;2023-12-20T10:59:08;2.25;;;1.30;;
67554;SDS011;54385;53.516;49.456;2023-12-20T11:01:46;1.88;;;1.30;;
67554;SDS011;54385;53.516;49.456;2023-12-20T11:05:36;2.90;;;1.20;;
67554;SDS011;54385;53.516;49.456;2023-12-20T11:08:38;1.05;;;0.80;;
67554;SDS011;54385;53.516;49.456;2023-12-20T11:14:15;2.33;;;0.98;;
67554;SDS011;54385;53.516;49.456;2023-12-20T11:17:26;2.72;;;1.30;;
67554;SDS011;54385;53.516;49.456;2023-12-20T11:20:34;1.85;;;1.10;;
67554;SDS011;54385;53.516;49.456;2023-12-20T11:23:27;2.05;;;1.10;;
67554;SDS011;54385;53.516;49.456;2023-12-20T11:27:30;1.65;;;1.20;;
67554;SDS011;54385;53.516;49.456;2023-12-20T11:33:38;2.15;;;0.98;;
67554;SDS011;54385;53.516;49.456;2023-12-20T11:39:55;2.70;;;1.00;;
67554;SDS011;54385;53.516;49.456;2023-12-20T11:53:38;1.30;;;0.88;;
67554;SDS011;54385;53.516;49.456;2023-12-20T11:56:22;1.20;;;1.05;;
67554;SDS011;54385;53.516;49.456;2023-12-20T11:59:26;1.67;;;1.00;;
67554;SDS011;54385;53.516;49.456;2023-12-20T12:17:11;1.60;;;1.10;;
67554;SDS011;54385;53.516;49.456;2023-12-20T12:24:08;1.63;;;1.02;;
67554;SDS011;54385;53.516;49.456;2023-12-20T12:31:41;1.35;;;0.88;;
67554;SDS011;54385;53.516;49.456;2023-12-20T12:35:19;1.85;;;1.10;;
67554;SDS011;54385;53.516;49.456;2023-12-20T12:38:45;1.80;;;1.10;;
67554;SDS011;54385;53.516;49.456;2023-12-20T12:44:53;1.10;;;0.90;;
67554;SDS011;54385;53.516;49.456;2023-12-20T12:48:18;2.38;;;1.05;;
67554;SDS011;54385;53.516;49.456;2023-12-20T12:50:51;1.20;;;0.70;;
67554;SDS011;54385;53.516;49.456;2023-12-20T12:53:46;1.92;;;0.90;;
67554;SDS011;54385;53.516;49.456;2023-12-20T12:56:54;1.85;;;0.95;;
67554;SDS011;54385;53.516;49.456;2023-12-20T12:59:53;1.52;;;1.10;;
67554;SDS011;54385;53.516;49.456;2023-12-20T13:09:11;1.48;;;1.00;;
67554;SDS011;54385;53.516;49.456;2023-12-20T13:11:46;1.77;;;1.15;;
67554;SDS011;54385;53.516;49.456;2023-12-20T13:14:52;1.20;;;0.88;;
67554;SDS011;54385;53.516;49.456;2023-12-20T13:17:31;1.27;;;0.90;;
67554;SDS011;54385;53.516;49.456;2023-12-20T13:20:33;1.75;;;1.00;;
67554;SDS011;54385;53.516;49.456;2023-12-20T13:23:22;1.25;;;0.90;;
67554;SDS011;54385;53.516;49.456;2023-12-20T13:26:02;1.17;;;0.77;;
67554;SDS011;54385;53.516;49.456;2023-12-20T13:29:08;1.27;;;0.90;;
67554;SDS011;54385;53.516;49.456;2023-12-20T13:31:58;2.03;;;0.98;;
67554;SDS011;54385;53.516;49.456;2023-12-20T13:38:43;1.65;;;1.13;;
67554;SDS011;54385;53.516;49.456;2023-12-20T13:41:15;1.35;;;0.88;;
67554;SDS011;54385;53.516;49.456;2023-12-20T13:43:42;1.10;;;0.95;;
67554;SDS011;54385;53.516;49.456;2023-12-20T13:46:15;1.15;;;0.70;;
67554;SDS011;54385;53.516;49.456;2023-12-20T13:49:07;1.42;;;1.02;;
67554;SDS011;54385;53.516;49.456;2023-12-20T13:51:40;1.08;;;0.70;;
67554;SDS011;54385;53.516;49.456;2023-12-20T13:54:39;1.38;;;1.08;;
67554;SDS011;54385;53.516;49.456;2023-12-20T13:57:27;1.42;;;1.08;;
67554;SDS011;54385;53.516;49.456;2023-12-20T14:03:57;1.90;;;1.00;;
67554;SDS011;54385;53.516;49.456;2023-12-20T14:06:26;1.50;;;1.00;;
67554;SDS011;54385;53.516;49.456;2023-12-20T14:09:16;1.10;;;0.88;;
67554;SDS011;54385;53.516;49.456;2023-12-20T14:11:51;1.38;;;1.00;;
67554;SDS011;54385;53.516;49.456;2023-12-20T14:14:31;1.40;;;0.98;;
67554;SDS011;54385;53.516;49.456;2023-12-20T14:16:58;1.40;;;0.93;;
67554;SDS011;54385;53.516;49.456;2023-12-20T14:19:34;1.20;;;0.90;;
67554;SDS011;54385;53.516;49.456;2023-12-20T14:22:16;0.95;;;0.85;;
67554;SDS011;54385;53.516;49.456;2023-12-20T14:24:44;1.35;;;0.98;;
67554;SDS011;54385;53.516;49.456;2023-12-20T14:27:13;1.40;;;0.90;;
67554;SDS011;54385;53.516;49.456;2023-12-20T14:30:11;1.77;;;1.00;;
67554;SDS011;54385;53.516;49.456;2023-12-20T14:33:14;1.70;;;1.00;;
67554;SDS011;54385;53.516;49.456;2023-12-20T14:35:48;1.83;;;1.13;;
67554;SDS011;54385;53.516;49.456;2023-12-20T14:38:14;2.28;;;1.00;;
67554;SDS011;54385;53.516;49.456;2023-12-20T14:40:57;2.60;;;1.23;;
67554;SDS011;54385;53.516;49.456;2023-12-20T14:43:31;2.30;;;0.98;;
67554;SDS011;54385;53.516;49.456;2023-12-20T14:45:58;1.90;;;1.23;;
67554;SDS011;54385;53.516;49.456;2023-12-20T14:51:02;1.75;;;1.20;;
67554;SDS011;54385;53.516;49.456;2023-12-20T14:53:49;1.63;;;1.30;;
67554;SDS011;54385;53.516;49.456;2023-12-20T14:56:18;1.52;;;1.00;;
67554;SDS011;54385;53.516;49.456;2023-12-20T14:58:48;1.10;;;1.00;;
67554;SDS011;54385;53.516;49.456;2023-12-20T15:01:29;1.95;;;0.98;;
67554;SDS011;54385;53.516;49.456;2023-12-20T15:04:00;1.73;;;1.30;;
67554;SDS011;54385;53.516;49.456;2023-12-20T15:06:43;1.45;;;1.10;;
67554;SDS011;54385;53.516;49.456;2023-12-20T15:09:16;1.38;;;1.10;;
67554;SDS011;54385;53.516;49.456;2023-12-20T15:11:46;2.30;;;1.38;;
67554;SDS011;54385;53.516;49.456;2023-12-20T15:14:16;1.35;;;1.17;;
67554;SDS011;54385;53.516;49.456;2023-12-20T15:16:50;1.77;;;1.10;;
67554;SDS011;54385;53.516;49.456;2023-12-20T15:19:17;1.60;;;1.25;;
67554;SDS011;54385;53.516;49.456;2023-12-20T15:21:44;1.80;;;1.20;;
67554;SDS011;54385;53.516;49.456;2023-12-20T15:24:18;1.17;;;1.00;;
67554;SDS011;54385;53.516;49.456;2023-12-20T15:26:54;1.48;;;1.23;;
67554;SDS011;54385;53.516;49.456;2023-12-20T15:29:21;1.00;;;0.88;;
67554;SDS011;54385;53.516;49.456;2023-12-20T15:31:53;1.10;;;0.95;;
67554;SDS011;54385;53.516;49.456;2023-12-20T15:34:22;1.67;;;1.30;;
67554;SDS011;54385;53.516;49.456;2023-12-20T15:36:51;1.52;;;1.20;;
67554;SDS011;54385;53.516;49.456;2023-12-20T15:39:28;1.30;;;1.17;;
67554;SDS011;54385;53.516;49.456;2023-12-20T15:42:25;1.58;;;1.20;;
67554;SDS011;54385;53.516;49.456;2023-12-20T15:45:05;1.50;;;1.17;;
67554;SDS011;54385;53.516;49.456;2023-12-20T15:47:33;1.10;;;1.00;;
67554;SDS011;54385;53.516;49.456;2023-12-20T15:50:06;1.65;;;1.27;;
67554;SDS011;54385;53.516;49.456;2023-12-20T15:52:33;1.20;;;1.00;;
67554;SDS011;54385;53.516;49.456;2023-12-20T15:55:02;1.80;;;1.42;;
67554;SDS011;54385;53.516;49.456;2023-12-20T15:57:30;1.55;;;1.13;;
67554;SDS011;54385;53.516;49.456;2023-12-20T16:00:00;2.13;;;1.23;;
67554;SDS011;54385;53.516;49.456;2023-12-20T16:02:27;1.55;;;1.17;;
67554;SDS011;54385;53.516;49.456;2023-12-20T16:04:56;1.27;;;1.00;;
67554;SDS011;54385;53.516;49.456;2023-12-20T16:07:24;1.10;;;1.00;;
67554;SDS011;54385;53.516;49.456;2023-12-20T16:09:51;1.40;;;1.20;;
67554;SDS011;54385;53.516;49.456;2023-12-20T16:12:20;1.40;;;1.20;;
67554;SDS011;54385;53.516;49.456;2023-12-20T16:14:47;1.75;;;1.23;;
67554;SDS011;54385;53.516;49.456;2023-12-20T16:17:14;1.27;;;1.02;;
67554;SDS011;54385;53.516;49.456;2023-12-20T16:19:50;1.25;;;1.00;;
67554;SDS011;54385;53.516;49.456;2023-12-20T16:22:17;1.42;;;1.13;;
67554;SDS011;54385;53.516;49.456;2023-12-20T16:24:44;1.38;;;1.00;;
67554;SDS011;54385;53.516;49.456;2023-12-20T16:27:11;1.10;;;0.95;;
67554;SDS011;54385;53.516;49.456;2023-12-20T16:29:37;1.20;;;1.05;;
67554;SDS011;54385;53.516;49.456;2023-12-20T16:32:04;1.88;;;1.30;;
67554;SDS011;54385;53.516;49.456;2023-12-20T16:34:33;1.33;;;1.00;;
67554;SDS011;54385;53.516;49.456;2023-12-20T16:37:00;1.55;;;1.20;;
67554;SDS011;54385;53.516;49.456;2023-12-20T16:39:27;2.05;;;1.20;;
67554;SDS011;54385;53.516;49.456;2023-12-20T16:41:57;1.35;;;1.02;;
67554;SDS011;54385;53.516;49.456;2023-12-20T16:44:23;1.27;;;0.95;;
67554;SDS011;54385;53.516;49.456;2023-12-20T16:46:50;2.10;;;1.10;;
67554;SDS011;54385;53.516;49.456;2023-12-20T16:49:26;1.52;;;1.20;;
67554;SDS011;54385;53.516;49.456;2023-12-20T16:51:55;1.60;;;1.20;;
67554;SDS011;54385;53.516;49.456;2023-12-20T16:54:22;1.35;;;1.13;;
67554;SDS011;54385;53.516;49.456;2023-12-20T16:56:48;2.17;;;1.17;;
67554;SDS011;54385;53.516;49.456;2023-12-20T16:59:17;1.60;;;1.00;;
67554;SDS011;54385;53.516;49.456;2023-12-20T17:01:44;1.20;;;1.05;;
67554;SDS011;54385;53.516;49.456;2023-12-20T17:04:11;1.30;;;1.00;;
67554;SDS011;54385;53.516;49.456;2023-12-20T17:06:44;1.30;;;1.10;;
67554;SDS011;54385;53.516;49.456;2023-12-20T17:09:15;1.17;;;1.02;;